sensor_id;sensor_type;location;lat;lon;timestamp;P1;durP1;ratioP1;P2;durP2;ratioP2
23531;SDS011;11943;52.270;20.978;2023-04-24T00:01:28;12.88;;;8.05;;
23531;SDS011;11943;52.270;20.978;2023-04-24T00:03:54;11.50;;;8.00;;
23531;SDS011;11943;52.270;20.978;2023-04-24T00:06:24;13.18;;;8.55;;
23531;SDS011;11943;52.270;20.978;2023-04-24T00:08:58;13.48;;;8.55;;
23531;SDS011;11943;52.270;20.978;2023-04-24T00:11:27;17.00;;;8.82;;
23531;SDS011;11943;52.270;20.978;2023-04-24T00:13:53;15.73;;;8.90;;
23531;SDS011;11943;52.270;20.978;2023-04-24T00:16:19;10.73;;;8.00;;
23531;SDS011;11943;52.270;20.978;2023-04-24T00:18:45;15.75;;;8.65;;
23531;SDS011;11943;52.270;20.978;2023-04-24T00:23:38;11.10;;;8.07;;
23531;SDS011;11943;52.270;20.978;2023-04-24T00:26:04;15.18;;;8.68;;
23531;SDS011;11943;52.270;20.978;2023-04-24T00:28:29;13.35;;;8.25;;
23531;SDS011;11943;52.270;20.978;2023-04-24T00:30:55;13.50;;;8.18;;
23531;SDS011;11943;52.270;20.978;2023-04-24T00:33:21;10.55;;;7.93;;
23531;SDS011;11943;52.270;20.978;2023-04-24T00:35:46;16.58;;;8.55;;
23531;SDS011;11943;52.270;20.978;2023-04-24T00:38:12;11.98;;;9.02;;
23531;SDS011;11943;52.270;20.978;2023-04-24T00:40:38;11.57;;;8.32;;
23531;SDS011;11943;52.270;20.978;2023-04-24T00:43:03;15.60;;;9.15;;
23531;SDS011;11943;52.270;20.978;2023-04-24T00:45:29;15.50;;;8.57;;
23531;SDS011;11943;52.270;20.978;2023-04-24T00:47:56;13.68;;;8.07;;
23531;SDS011;11943;52.270;20.978;2023-04-24T00:50:23;11.38;;;8.68;;
23531;SDS011;11943;52.270;20.978;2023-04-24T00:52:49;14.77;;;9.50;;
23531;SDS011;11943;52.270;20.978;2023-04-24T00:55:15;18.92;;;8.88;;
23531;SDS011;11943;52.270;20.978;2023-04-24T00:57:41;16.83;;;8.70;;
23531;SDS011;11943;52.270;20.978;2023-04-24T01:00:08;10.55;;;8.20;;
23531;SDS011;11943;52.270;20.978;2023-04-24T01:02:36;13.23;;;8.77;;
23531;SDS011;11943;52.270;20.978;2023-04-24T01:05:09;12.75;;;8.55;;
23531;SDS011;11943;52.270;20.978;2023-04-24T01:07:35;13.23;;;9.15;;
23531;SDS011;11943;52.270;20.978;2023-04-24T01:10:01;13.05;;;8.93;;
23531;SDS011;11943;52.270;20.978;2023-04-24T01:12:27;11.88;;;8.70;;
23531;SDS011;11943;52.270;20.978;2023-04-24T01:14:54;17.33;;;9.13;;
23531;SDS011;11943;52.270;20.978;2023-04-24T01:17:20;19.88;;;9.13;;
23531;SDS011;11943;52.270;20.978;2023-04-24T01:19:46;14.98;;;8.38;;
23531;SDS011;11943;52.270;20.978;2023-04-24T01:22:14;14.52;;;9.18;;
23531;SDS011;11943;52.270;20.978;2023-04-24T01:24:41;12.77;;;9.23;;
23531;SDS011;11943;52.270;20.978;2023-04-24T01:27:08;10.98;;;9.15;;
23531;SDS011;11943;52.270;20.978;2023-04-24T01:29:35;18.35;;;9.13;;
23531;SDS011;11943;52.270;20.978;2023-04-24T01:32:02;16.80;;;9.80;;
23531;SDS011;11943;52.270;20.978;2023-04-24T01:34:28;11.73;;;9.15;;
23531;SDS011;11943;52.270;20.978;2023-04-24T01:36:54;13.68;;;9.50;;
23531;SDS011;11943;52.270;20.978;2023-04-24T01:39:21;17.23;;;9.75;;
23531;SDS011;11943;52.270;20.978;2023-04-24T01:41:48;11.00;;;8.67;;
23531;SDS011;11943;52.270;20.978;2023-04-24T01:44:15;18.92;;;8.82;;
23531;SDS011;11943;52.270;20.978;2023-04-24T01:46:41;14.95;;;9.23;;
23531;SDS011;11943;52.270;20.978;2023-04-24T01:49:07;14.45;;;9.05;;
23531;SDS011;11943;52.270;20.978;2023-04-24T01:51:32;14.48;;;9.48;;
23531;SDS011;11943;52.270;20.978;2023-04-24T01:53:58;17.60;;;9.20;;
23531;SDS011;11943;52.270;20.978;2023-04-24T01:56:24;12.35;;;9.13;;
23531;SDS011;11943;52.270;20.978;2023-04-24T01:58:50;14.25;;;9.27;;
23531;SDS011;11943;52.270;20.978;2023-04-24T02:01:19;13.38;;;9.38;;
23531;SDS011;11943;52.270;20.978;2023-04-24T02:03:45;14.05;;;9.38;;
23531;SDS011;11943;52.270;20.978;2023-04-24T02:06:11;13.25;;;9.43;;
23531;SDS011;11943;52.270;20.978;2023-04-24T02:08:37;28.60;;;10.00;;
23531;SDS011;11943;52.270;20.978;2023-04-24T02:11:02;14.45;;;9.43;;
23531;SDS011;11943;52.270;20.978;2023-04-24T02:13:28;16.30;;;9.07;;
23531;SDS011;11943;52.270;20.978;2023-04-24T02:15:54;17.15;;;9.32;;
23531;SDS011;11943;52.270;20.978;2023-04-24T02:18:19;12.82;;;9.57;;
23531;SDS011;11943;52.270;20.978;2023-04-24T02:20:45;13.10;;;9.57;;
23531;SDS011;11943;52.270;20.978;2023-04-24T02:23:11;16.83;;;9.68;;
23531;SDS011;11943;52.270;20.978;2023-04-24T02:25:38;15.33;;;9.40;;
23531;SDS011;11943;52.270;20.978;2023-04-24T02:28:03;17.77;;;9.80;;
23531;SDS011;11943;52.270;20.978;2023-04-24T02:30:29;16.08;;;9.70;;
23531;SDS011;11943;52.270;20.978;2023-04-24T02:32:55;20.48;;;9.68;;
23531;SDS011;11943;52.270;20.978;2023-04-24T02:35:21;13.60;;;9.40;;
23531;SDS011;11943;52.270;20.978;2023-04-24T02:37:46;17.13;;;9.45;;
23531;SDS011;11943;52.270;20.978;2023-04-24T02:40:12;13.88;;;8.63;;
23531;SDS011;11943;52.270;20.978;2023-04-24T02:42:38;14.80;;;9.80;;
23531;SDS011;11943;52.270;20.978;2023-04-24T02:45:03;19.33;;;9.90;;
23531;SDS011;11943;52.270;20.978;2023-04-24T02:47:30;13.70;;;9.73;;
23531;SDS011;11943;52.270;20.978;2023-04-24T02:49:55;14.85;;;10.05;;
23531;SDS011;11943;52.270;20.978;2023-04-24T02:52:21;14.50;;;10.20;;
23531;SDS011;11943;52.270;20.978;2023-04-24T02:54:47;17.83;;;9.85;;
23531;SDS011;11943;52.270;20.978;2023-04-24T02:57:12;16.25;;;9.88;;
23531;SDS011;11943;52.270;20.978;2023-04-24T02:59:38;14.20;;;10.00;;
23531;SDS011;11943;52.270;20.978;2023-04-24T03:02:04;16.73;;;10.38;;
23531;SDS011;11943;52.270;20.978;2023-04-24T03:04:30;17.92;;;9.90;;
23531;SDS011;11943;52.270;20.978;2023-04-24T03:06:57;23.85;;;10.18;;
23531;SDS011;11943;52.270;20.978;2023-04-24T03:09:22;15.15;;;9.95;;
23531;SDS011;11943;52.270;20.978;2023-04-24T03:11:48;14.52;;;10.30;;
23531;SDS011;11943;52.270;20.978;2023-04-24T03:14:14;19.92;;;10.45;;
23531;SDS011;11943;52.270;20.978;2023-04-24T03:16:40;17.50;;;10.80;;
23531;SDS011;11943;52.270;20.978;2023-04-24T03:19:06;16.30;;;10.20;;
23531;SDS011;11943;52.270;20.978;2023-04-24T03:21:31;15.75;;;9.77;;
23531;SDS011;11943;52.270;20.978;2023-04-24T03:23:57;19.98;;;10.45;;
23531;SDS011;11943;52.270;20.978;2023-04-24T03:26:23;16.35;;;9.85;;
23531;SDS011;11943;52.270;20.978;2023-04-24T03:28:49;16.73;;;10.68;;
23531;SDS011;11943;52.270;20.978;2023-04-24T03:31:15;16.70;;;10.25;;
23531;SDS011;11943;52.270;20.978;2023-04-24T03:33:41;13.90;;;10.38;;
23531;SDS011;11943;52.270;20.978;2023-04-24T03:36:07;19.13;;;9.68;;
23531;SDS011;11943;52.270;20.978;2023-04-24T03:38:33;21.83;;;10.52;;
23531;SDS011;11943;52.270;20.978;2023-04-24T03:40:58;17.55;;;10.65;;
23531;SDS011;11943;52.270;20.978;2023-04-24T03:43:24;15.27;;;9.40;;
23531;SDS011;11943;52.270;20.978;2023-04-24T03:45:50;16.08;;;9.90;;
23531;SDS011;11943;52.270;20.978;2023-04-24T03:48:15;17.13;;;10.07;;
23531;SDS011;11943;52.270;20.978;2023-04-24T03:50:41;14.13;;;10.63;;
23531;SDS011;11943;52.270;20.978;2023-04-24T03:53:07;16.27;;;9.85;;
23531;SDS011;11943;52.270;20.978;2023-04-24T03:55:33;18.23;;;10.48;;
23531;SDS011;11943;52.270;20.978;2023-04-24T03:57:58;16.98;;;10.30;;
23531;SDS011;11943;52.270;20.978;2023-04-24T04:00:25;14.07;;;9.57;;
23531;SDS011;11943;52.270;20.978;2023-04-24T04:02:51;14.82;;;9.98;;
23531;SDS011;11943;52.270;20.978;2023-04-24T04:05:17;21.38;;;9.55;;
23531;SDS011;11943;52.270;20.978;2023-04-24T04:07:42;19.55;;;9.85;;
23531;SDS011;11943;52.270;20.978;2023-04-24T04:10:08;15.80;;;9.75;;
23531;SDS011;11943;52.270;20.978;2023-04-24T04:12:34;13.52;;;9.30;;
23531;SDS011;11943;52.270;20.978;2023-04-24T04:14:59;12.98;;;9.43;;
23531;SDS011;11943;52.270;20.978;2023-04-24T04:17:25;14.68;;;9.63;;
23531;SDS011;11943;52.270;20.978;2023-04-24T04:19:51;19.63;;;9.20;;
23531;SDS011;11943;52.270;20.978;2023-04-24T04:22:17;12.77;;;8.70;;
23531;SDS011;11943;52.270;20.978;2023-04-24T04:24:42;14.80;;;9.50;;
23531;SDS011;11943;52.270;20.978;2023-04-24T04:27:08;13.55;;;8.73;;
23531;SDS011;11943;52.270;20.978;2023-04-24T04:29:34;18.58;;;9.95;;
23531;SDS011;11943;52.270;20.978;2023-04-24T04:32:00;19.52;;;9.10;;
23531;SDS011;11943;52.270;20.978;2023-04-24T04:34:27;13.75;;;9.57;;
23531;SDS011;11943;52.270;20.978;2023-04-24T04:36:54;15.60;;;9.93;;
23531;SDS011;11943;52.270;20.978;2023-04-24T04:39:20;18.35;;;9.90;;
23531;SDS011;11943;52.270;20.978;2023-04-24T04:41:46;15.93;;;10.02;;
23531;SDS011;11943;52.270;20.978;2023-04-24T04:44:13;14.85;;;9.55;;
23531;SDS011;11943;52.270;20.978;2023-04-24T04:46:39;13.98;;;8.88;;
23531;SDS011;11943;52.270;20.978;2023-04-24T04:49:06;12.70;;;9.80;;
23531;SDS011;11943;52.270;20.978;2023-04-24T04:51:33;16.37;;;9.60;;
23531;SDS011;11943;52.270;20.978;2023-04-24T04:53:59;13.15;;;9.57;;
23531;SDS011;11943;52.270;20.978;2023-04-24T04:56:26;12.02;;;9.60;;
23531;SDS011;11943;52.270;20.978;2023-04-24T04:58:51;19.13;;;9.43;;
23531;SDS011;11943;52.270;20.978;2023-04-24T05:01:17;14.30;;;9.88;;
23531;SDS011;11943;52.270;20.978;2023-04-24T05:03:42;18.08;;;9.55;;
23531;SDS011;11943;52.270;20.978;2023-04-24T05:06:08;13.43;;;9.85;;
23531;SDS011;11943;52.270;20.978;2023-04-24T05:08:34;13.70;;;9.75;;
23531;SDS011;11943;52.270;20.978;2023-04-24T05:10:59;16.15;;;9.10;;
23531;SDS011;11943;52.270;20.978;2023-04-24T05:13:25;13.40;;;9.18;;
23531;SDS011;11943;52.270;20.978;2023-04-24T05:15:51;13.73;;;8.68;;
23531;SDS011;11943;52.270;20.978;2023-04-24T05:18:17;19.77;;;9.52;;
23531;SDS011;11943;52.270;20.978;2023-04-24T05:20:43;12.00;;;8.82;;
23531;SDS011;11943;52.270;20.978;2023-04-24T05:23:09;20.58;;;8.88;;
23531;SDS011;11943;52.270;20.978;2023-04-24T05:25:35;20.02;;;8.90;;
23531;SDS011;11943;52.270;20.978;2023-04-24T05:28:01;10.73;;;8.00;;
23531;SDS011;11943;52.270;20.978;2023-04-24T05:30:27;16.98;;;8.98;;
23531;SDS011;11943;52.270;20.978;2023-04-24T05:32:53;14.55;;;9.07;;
23531;SDS011;11943;52.270;20.978;2023-04-24T05:35:19;19.05;;;9.23;;
23531;SDS011;11943;52.270;20.978;2023-04-24T05:37:44;19.25;;;8.73;;
23531;SDS011;11943;52.270;20.978;2023-04-24T05:40:10;15.32;;;8.60;;
23531;SDS011;11943;52.270;20.978;2023-04-24T05:42:36;12.85;;;8.73;;
23531;SDS011;11943;52.270;20.978;2023-04-24T05:45:02;11.95;;;8.80;;
23531;SDS011;11943;52.270;20.978;2023-04-24T05:47:29;15.00;;;8.23;;
23531;SDS011;11943;52.270;20.978;2023-04-24T05:49:55;14.82;;;8.32;;
23531;SDS011;11943;52.270;20.978;2023-04-24T05:52:20;15.10;;;8.20;;
23531;SDS011;11943;52.270;20.978;2023-04-24T05:54:46;13.23;;;7.68;;
23531;SDS011;11943;52.270;20.978;2023-04-24T05:57:12;14.68;;;8.60;;
23531;SDS011;11943;52.270;20.978;2023-04-24T05:59:37;17.92;;;9.07;;
23531;SDS011;11943;52.270;20.978;2023-04-24T06:02:03;17.10;;;9.05;;
23531;SDS011;11943;52.270;20.978;2023-04-24T06:04:29;13.98;;;8.55;;
23531;SDS011;11943;52.270;20.978;2023-04-24T06:06:55;17.52;;;8.85;;
23531;SDS011;11943;52.270;20.978;2023-04-24T06:09:23;14.10;;;8.25;;
23531;SDS011;11943;52.270;20.978;2023-04-24T06:11:49;21.13;;;9.43;;
23531;SDS011;11943;52.270;20.978;2023-04-24T06:14:18;20.50;;;9.10;;
23531;SDS011;11943;52.270;20.978;2023-04-24T06:16:44;24.52;;;11.52;;
23531;SDS011;11943;52.270;20.978;2023-04-24T06:19:09;17.15;;;9.52;;
23531;SDS011;11943;52.270;20.978;2023-04-24T06:21:35;21.02;;;9.70;;
23531;SDS011;11943;52.270;20.978;2023-04-24T06:24:01;24.77;;;9.80;;
23531;SDS011;11943;52.270;20.978;2023-04-24T06:26:27;20.17;;;9.32;;
23531;SDS011;11943;52.270;20.978;2023-04-24T06:28:53;14.63;;;10.23;;
23531;SDS011;11943;52.270;20.978;2023-04-24T06:31:23;17.88;;;9.73;;
23531;SDS011;11943;52.270;20.978;2023-04-24T06:33:49;20.30;;;10.10;;
23531;SDS011;11943;52.270;20.978;2023-04-24T06:36:15;17.75;;;9.73;;
23531;SDS011;11943;52.270;20.978;2023-04-24T06:38:41;18.10;;;9.63;;
23531;SDS011;11943;52.270;20.978;2023-04-24T06:41:06;24.63;;;10.70;;
23531;SDS011;11943;52.270;20.978;2023-04-24T06:43:32;18.95;;;10.00;;
23531;SDS011;11943;52.270;20.978;2023-04-24T06:45:59;24.27;;;10.50;;
23531;SDS011;11943;52.270;20.978;2023-04-24T06:48:25;21.65;;;10.27;;
23531;SDS011;11943;52.270;20.978;2023-04-24T06:50:51;17.33;;;9.93;;
23531;SDS011;11943;52.270;20.978;2023-04-24T06:53:17;18.70;;;10.02;;
23531;SDS011;11943;52.270;20.978;2023-04-24T06:55:43;16.05;;;10.63;;
23531;SDS011;11943;52.270;20.978;2023-04-24T06:58:10;20.40;;;9.50;;
23531;SDS011;11943;52.270;20.978;2023-04-24T07:00:36;22.67;;;10.15;;
23531;SDS011;11943;52.270;20.978;2023-04-24T07:03:03;27.65;;;10.35;;
23531;SDS011;11943;52.270;20.978;2023-04-24T07:05:30;36.05;;;10.65;;
23531;SDS011;11943;52.270;20.978;2023-04-24T07:07:58;37.75;;;10.50;;
23531;SDS011;11943;52.270;20.978;2023-04-24T07:10:24;20.02;;;9.70;;
23531;SDS011;11943;52.270;20.978;2023-04-24T07:12:52;20.15;;;9.20;;
23531;SDS011;11943;52.270;20.978;2023-04-24T07:15:17;20.42;;;9.95;;
23531;SDS011;11943;52.270;20.978;2023-04-24T07:17:43;26.95;;;9.50;;
23531;SDS011;11943;52.270;20.978;2023-04-24T07:20:10;26.27;;;10.15;;
23531;SDS011;11943;52.270;20.978;2023-04-24T07:22:39;24.02;;;10.88;;
23531;SDS011;11943;52.270;20.978;2023-04-24T07:25:05;26.85;;;10.38;;
23531;SDS011;11943;52.270;20.978;2023-04-24T07:27:32;32.67;;;9.63;;
23531;SDS011;11943;52.270;20.978;2023-04-24T07:29:58;21.92;;;9.60;;
23531;SDS011;11943;52.270;20.978;2023-04-24T07:32:24;30.95;;;9.32;;
23531;SDS011;11943;52.270;20.978;2023-04-24T07:34:50;22.35;;;9.70;;
23531;SDS011;11943;52.270;20.978;2023-04-24T07:37:15;21.85;;;8.73;;
23531;SDS011;11943;52.270;20.978;2023-04-24T07:39:41;20.85;;;8.98;;
23531;SDS011;11943;52.270;20.978;2023-04-24T07:42:07;22.95;;;9.35;;
23531;SDS011;11943;52.270;20.978;2023-04-24T07:44:33;23.23;;;9.52;;
23531;SDS011;11943;52.270;20.978;2023-04-24T07:46:58;17.20;;;8.68;;
23531;SDS011;11943;52.270;20.978;2023-04-24T07:49:24;20.10;;;9.15;;
23531;SDS011;11943;52.270;20.978;2023-04-24T07:51:50;19.73;;;9.20;;
23531;SDS011;11943;52.270;20.978;2023-04-24T07:54:16;19.80;;;9.52;;
23531;SDS011;11943;52.270;20.978;2023-04-24T07:56:42;17.40;;;9.25;;
23531;SDS011;11943;52.270;20.978;2023-04-24T07:59:08;24.33;;;9.35;;
23531;SDS011;11943;52.270;20.978;2023-04-24T08:01:35;28.05;;;9.70;;
23531;SDS011;11943;52.270;20.978;2023-04-24T08:04:01;16.45;;;8.80;;
23531;SDS011;11943;52.270;20.978;2023-04-24T08:06:27;28.13;;;9.10;;
23531;SDS011;11943;52.270;20.978;2023-04-24T08:08:55;27.83;;;9.25;;
23531;SDS011;11943;52.270;20.978;2023-04-24T08:11:21;32.00;;;9.68;;
23531;SDS011;11943;52.270;20.978;2023-04-24T08:13:47;19.70;;;9.10;;
23531;SDS011;11943;52.270;20.978;2023-04-24T08:16:12;19.40;;;8.82;;
23531;SDS011;11943;52.270;20.978;2023-04-24T08:18:38;18.38;;;9.35;;
23531;SDS011;11943;52.270;20.978;2023-04-24T08:21:04;17.85;;;9.38;;
23531;SDS011;11943;52.270;20.978;2023-04-24T08:23:29;17.98;;;9.50;;
23531;SDS011;11943;52.270;20.978;2023-04-24T08:25:55;17.02;;;9.00;;
23531;SDS011;11943;52.270;20.978;2023-04-24T08:28:22;13.98;;;8.82;;
23531;SDS011;11943;52.270;20.978;2023-04-24T08:30:48;18.27;;;8.35;;
23531;SDS011;11943;52.270;20.978;2023-04-24T08:33:19;18.85;;;8.48;;
23531;SDS011;11943;52.270;20.978;2023-04-24T08:35:48;14.35;;;8.80;;
23531;SDS011;11943;52.270;20.978;2023-04-24T08:38:15;19.33;;;8.45;;
23531;SDS011;11943;52.270;20.978;2023-04-24T08:40:41;13.32;;;8.57;;
23531;SDS011;11943;52.270;20.978;2023-04-24T08:43:07;16.00;;;8.00;;
23531;SDS011;11943;52.270;20.978;2023-04-24T08:45:33;17.73;;;9.48;;
23531;SDS011;11943;52.270;20.978;2023-04-24T08:48:00;20.48;;;9.60;;
23531;SDS011;11943;52.270;20.978;2023-04-24T08:50:26;15.38;;;8.20;;
23531;SDS011;11943;52.270;20.978;2023-04-24T08:52:53;17.38;;;9.13;;
23531;SDS011;11943;52.270;20.978;2023-04-24T08:55:19;21.25;;;8.27;;
23531;SDS011;11943;52.270;20.978;2023-04-24T08:57:50;15.30;;;8.57;;
23531;SDS011;11943;52.270;20.978;2023-04-24T09:00:21;22.45;;;9.18;;
23531;SDS011;11943;52.270;20.978;2023-04-24T09:02:48;15.35;;;8.18;;
23531;SDS011;11943;52.270;20.978;2023-04-24T09:05:16;13.50;;;8.20;;
23531;SDS011;11943;52.270;20.978;2023-04-24T09:07:44;13.85;;;7.82;;
23531;SDS011;11943;52.270;20.978;2023-04-24T09:10:13;12.77;;;7.97;;
23531;SDS011;11943;52.270;20.978;2023-04-24T09:12:40;13.80;;;8.27;;
23531;SDS011;11943;52.270;20.978;2023-04-24T09:15:07;12.05;;;7.40;;
23531;SDS011;11943;52.270;20.978;2023-04-24T09:17:33;19.00;;;7.93;;
23531;SDS011;11943;52.270;20.978;2023-04-24T09:20:00;15.77;;;7.20;;
23531;SDS011;11943;52.270;20.978;2023-04-24T09:22:29;9.32;;;7.13;;
23531;SDS011;11943;52.270;20.978;2023-04-24T09:25:05;12.32;;;7.00;;
23531;SDS011;11943;52.270;20.978;2023-04-24T09:27:34;12.68;;;5.57;;
23531;SDS011;11943;52.270;20.978;2023-04-24T09:30:00;14.35;;;6.35;;
23531;SDS011;11943;52.270;20.978;2023-04-24T09:32:26;13.38;;;5.28;;
23531;SDS011;11943;52.270;20.978;2023-04-24T09:35:08;11.73;;;5.75;;
23531;SDS011;11943;52.270;20.978;2023-04-24T09:37:36;9.13;;;5.50;;
23531;SDS011;11943;52.270;20.978;2023-04-24T09:40:25;9.35;;;4.40;;
23531;SDS011;11943;52.270;20.978;2023-04-24T09:42:52;7.78;;;4.70;;
23531;SDS011;11943;52.270;20.978;2023-04-24T09:45:19;8.60;;;4.90;;
23531;SDS011;11943;52.270;20.978;2023-04-24T09:47:46;10.67;;;5.10;;
23531;SDS011;11943;52.270;20.978;2023-04-24T09:50:16;12.90;;;4.93;;
23531;SDS011;11943;52.270;20.978;2023-04-24T09:55:12;7.90;;;5.75;;
23531;SDS011;11943;52.270;20.978;2023-04-24T09:57:48;10.63;;;5.97;;
23531;SDS011;11943;52.270;20.978;2023-04-24T10:00:22;8.07;;;4.95;;
23531;SDS011;11943;52.270;20.978;2023-04-24T10:02:56;13.52;;;5.80;;
23531;SDS011;11943;52.270;20.978;2023-04-24T10:05:27;11.52;;;4.30;;
23531;SDS011;11943;52.270;20.978;2023-04-24T10:08:10;10.07;;;6.15;;
23531;SDS011;11943;52.270;20.978;2023-04-24T10:10:43;6.85;;;4.68;;
23531;SDS011;11943;52.270;20.978;2023-04-24T10:13:10;10.68;;;5.22;;
23531;SDS011;11943;52.270;20.978;2023-04-24T10:15:37;9.73;;;4.72;;
23531;SDS011;11943;52.270;20.978;2023-04-24T10:18:04;8.90;;;4.82;;
23531;SDS011;11943;52.270;20.978;2023-04-24T10:22:58;13.52;;;5.20;;
23531;SDS011;11943;52.270;20.978;2023-04-24T10:25:25;8.40;;;5.38;;
23531;SDS011;11943;52.270;20.978;2023-04-24T10:27:56;7.57;;;5.45;;
23531;SDS011;11943;52.270;20.978;2023-04-24T10:30:25;10.50;;;5.82;;
23531;SDS011;11943;52.270;20.978;2023-04-24T10:32:55;12.13;;;4.68;;
23531;SDS011;11943;52.270;20.978;2023-04-24T10:35:21;12.07;;;6.07;;
23531;SDS011;11943;52.270;20.978;2023-04-24T10:37:52;16.85;;;6.30;;
23531;SDS011;11943;52.270;20.978;2023-04-24T10:40:40;16.88;;;6.72;;
23531;SDS011;11943;52.270;20.978;2023-04-24T10:43:07;13.65;;;6.32;;
23531;SDS011;11943;52.270;20.978;2023-04-24T10:45:36;10.60;;;6.13;;
23531;SDS011;11943;52.270;20.978;2023-04-24T10:48:05;13.00;;;6.38;;
23531;SDS011;11943;52.270;20.978;2023-04-24T10:50:43;11.60;;;6.40;;
23531;SDS011;11943;52.270;20.978;2023-04-24T10:53:19;11.43;;;5.88;;
23531;SDS011;11943;52.270;20.978;2023-04-24T10:55:49;10.40;;;6.55;;
23531;SDS011;11943;52.270;20.978;2023-04-24T10:58:44;16.35;;;6.57;;
23531;SDS011;11943;52.270;20.978;2023-04-24T11:01:32;10.63;;;5.85;;
23531;SDS011;11943;52.270;20.978;2023-04-24T11:03:58;8.73;;;6.40;;
23531;SDS011;11943;52.270;20.978;2023-04-24T11:06:31;9.43;;;6.03;;
23531;SDS011;11943;52.270;20.978;2023-04-24T11:09:09;10.52;;;6.20;;
23531;SDS011;11943;52.270;20.978;2023-04-24T11:11:42;11.88;;;6.63;;
23531;SDS011;11943;52.270;20.978;2023-04-24T11:14:10;11.45;;;5.97;;
23531;SDS011;11943;52.270;20.978;2023-04-24T11:16:41;14.25;;;6.50;;
23531;SDS011;11943;52.270;20.978;2023-04-24T11:32:19;8.60;;;4.78;;
23531;SDS011;11943;52.270;20.978;2023-04-24T11:34:58;9.18;;;5.38;;
23531;SDS011;11943;52.270;20.978;2023-04-24T11:37:26;8.13;;;5.55;;
23531;SDS011;11943;52.270;20.978;2023-04-24T11:39:56;12.93;;;5.63;;
23531;SDS011;11943;52.270;20.978;2023-04-24T11:42:23;13.52;;;5.35;;
23531;SDS011;11943;52.270;20.978;2023-04-24T11:44:51;6.57;;;5.15;;
23531;SDS011;11943;52.270;20.978;2023-04-24T11:47:18;25.05;;;5.70;;
23531;SDS011;11943;52.270;20.978;2023-04-24T11:49:43;8.00;;;5.10;;
23531;SDS011;11943;52.270;20.978;2023-04-24T11:52:09;10.32;;;5.30;;
23531;SDS011;11943;52.270;20.978;2023-04-24T11:54:35;9.38;;;5.00;;
23531;SDS011;11943;52.270;20.978;2023-04-24T11:57:05;12.30;;;5.20;;
23531;SDS011;11943;52.270;20.978;2023-04-24T11:59:35;8.20;;;4.70;;
23531;SDS011;11943;52.270;20.978;2023-04-24T12:02:02;5.43;;;3.92;;
23531;SDS011;11943;52.270;20.978;2023-04-24T12:04:37;5.90;;;4.10;;
23531;SDS011;11943;52.270;20.978;2023-04-24T12:07:06;8.23;;;4.80;;
23531;SDS011;11943;52.270;20.978;2023-04-24T12:09:45;7.80;;;4.65;;
23531;SDS011;11943;52.270;20.978;2023-04-24T12:12:11;7.32;;;4.38;;
23531;SDS011;11943;52.270;20.978;2023-04-24T12:17:23;6.85;;;4.70;;
23531;SDS011;11943;52.270;20.978;2023-04-24T12:20:03;12.05;;;5.35;;
23531;SDS011;11943;52.270;20.978;2023-04-24T12:22:49;15.40;;;5.07;;
23531;SDS011;11943;52.270;20.978;2023-04-24T12:25:19;7.38;;;4.65;;
23531;SDS011;11943;52.270;20.978;2023-04-24T12:27:46;7.97;;;4.80;;
23531;SDS011;11943;52.270;20.978;2023-04-24T12:30:33;6.03;;;4.30;;
23531;SDS011;11943;52.270;20.978;2023-04-24T12:33:01;6.82;;;4.78;;
23531;SDS011;11943;52.270;20.978;2023-04-24T12:37:59;9.68;;;4.80;;
23531;SDS011;11943;52.270;20.978;2023-04-24T12:40:31;9.10;;;4.50;;
23531;SDS011;11943;52.270;20.978;2023-04-24T12:42:56;7.97;;;4.57;;
23531;SDS011;11943;52.270;20.978;2023-04-24T12:45:22;7.47;;;4.57;;
23531;SDS011;11943;52.270;20.978;2023-04-24T12:47:50;8.63;;;4.57;;
23531;SDS011;11943;52.270;20.978;2023-04-24T12:50:15;6.65;;;5.13;;
23531;SDS011;11943;52.270;20.978;2023-04-24T12:52:41;8.38;;;5.13;;
23531;SDS011;11943;52.270;20.978;2023-04-24T12:55:08;30.35;;;5.32;;
23531;SDS011;11943;52.270;20.978;2023-04-24T12:57:34;32.75;;;5.15;;
23531;SDS011;11943;52.270;20.978;2023-04-24T13:02:28;14.30;;;3.57;;
23531;SDS011;11943;52.270;20.978;2023-04-24T13:04:55;15.27;;;4.05;;
23531;SDS011;11943;52.270;20.978;2023-04-24T13:07:22;14.05;;;3.67;;
23531;SDS011;11943;52.270;20.978;2023-04-24T13:09:48;12.48;;;3.78;;
23531;SDS011;11943;52.270;20.978;2023-04-24T13:12:14;12.95;;;3.70;;
23531;SDS011;11943;52.270;20.978;2023-04-24T13:14:40;16.15;;;3.90;;
23531;SDS011;11943;52.270;20.978;2023-04-24T13:17:06;12.00;;;3.10;;
23531;SDS011;11943;52.270;20.978;2023-04-24T13:19:40;9.88;;;3.17;;
23531;SDS011;11943;52.270;20.978;2023-04-24T13:22:08;15.43;;;3.58;;
23531;SDS011;11943;52.270;20.978;2023-04-24T13:24:34;9.23;;;3.08;;
23531;SDS011;11943;52.270;20.978;2023-04-24T13:27:00;16.38;;;3.15;;
23531;SDS011;11943;52.270;20.978;2023-04-24T13:29:27;8.07;;;3.40;;
23531;SDS011;11943;52.270;20.978;2023-04-24T13:31:53;8.13;;;3.22;;
23531;SDS011;11943;52.270;20.978;2023-04-24T13:34:20;7.00;;;3.33;;
23531;SDS011;11943;52.270;20.978;2023-04-24T13:36:46;9.40;;;3.33;;
23531;SDS011;11943;52.270;20.978;2023-04-24T13:39:12;7.97;;;3.22;;
23531;SDS011;11943;52.270;20.978;2023-04-24T13:41:38;8.15;;;3.50;;
23531;SDS011;11943;52.270;20.978;2023-04-24T13:44:04;5.78;;;3.20;;
23531;SDS011;11943;52.270;20.978;2023-04-24T13:46:30;4.72;;;3.10;;
23531;SDS011;11943;52.270;20.978;2023-04-24T13:48:57;8.73;;;3.58;;
23531;SDS011;11943;52.270;20.978;2023-04-24T13:51:23;12.70;;;3.70;;
23531;SDS011;11943;52.270;20.978;2023-04-24T13:53:52;6.97;;;3.65;;
23531;SDS011;11943;52.270;20.978;2023-04-24T13:56:18;6.05;;;3.53;;
23531;SDS011;11943;52.270;20.978;2023-04-24T13:58:45;6.32;;;3.55;;
23531;SDS011;11943;52.270;20.978;2023-04-24T14:01:10;3.95;;;3.08;;
23531;SDS011;11943;52.270;20.978;2023-04-24T14:03:37;7.30;;;3.00;;
23531;SDS011;11943;52.270;20.978;2023-04-24T14:06:03;10.40;;;3.53;;
23531;SDS011;11943;52.270;20.978;2023-04-24T14:08:29;4.85;;;2.90;;
23531;SDS011;11943;52.270;20.978;2023-04-24T14:10:54;7.57;;;2.80;;
23531;SDS011;11943;52.270;20.978;2023-04-24T14:13:20;5.95;;;2.80;;
23531;SDS011;11943;52.270;20.978;2023-04-24T14:15:46;5.43;;;2.70;;
23531;SDS011;11943;52.270;20.978;2023-04-24T14:18:12;3.92;;;2.70;;
23531;SDS011;11943;52.270;20.978;2023-04-24T14:20:37;9.20;;;3.00;;
23531;SDS011;11943;52.270;20.978;2023-04-24T14:23:03;5.30;;;3.05;;
23531;SDS011;11943;52.270;20.978;2023-04-24T14:25:29;3.97;;;2.72;;
23531;SDS011;11943;52.270;20.978;2023-04-24T14:27:55;5.63;;;3.05;;
23531;SDS011;11943;52.270;20.978;2023-04-24T14:30:21;6.07;;;3.10;;
23531;SDS011;11943;52.270;20.978;2023-04-24T14:32:46;4.63;;;3.03;;
23531;SDS011;11943;52.270;20.978;2023-04-24T14:35:12;3.67;;;2.95;;
23531;SDS011;11943;52.270;20.978;2023-04-24T14:37:39;4.00;;;2.78;;
23531;SDS011;11943;52.270;20.978;2023-04-24T14:40:06;6.00;;;3.20;;
23531;SDS011;11943;52.270;20.978;2023-04-24T14:42:33;4.95;;;3.30;;
23531;SDS011;11943;52.270;20.978;2023-04-24T14:45:00;4.53;;;2.95;;
23531;SDS011;11943;52.270;20.978;2023-04-24T14:47:25;6.88;;;3.03;;
23531;SDS011;11943;52.270;20.978;2023-04-24T14:49:51;9.95;;;3.55;;
23531;SDS011;11943;52.270;20.978;2023-04-24T14:52:17;6.43;;;3.45;;